sensor_id;sensor_type;location;lat;lon;timestamp;temperature;humidity
13798;DHT22;6970;51.340;3.240;2023-07-31T00:00:43;17.30;99.90
13798;DHT22;6970;51.340;3.240;2023-07-31T00:03:11;17.30;99.90
13798;DHT22;6970;51.340;3.240;2023-07-31T00:05:40;17.30;99.90
13798;DHT22;6970;51.340;3.240;2023-07-31T00:08:07;17.30;99.90
13798;DHT22;6970;51.340;3.240;2023-07-31T00:10:36;17.40;99.90
13798;DHT22;6970;51.340;3.240;2023-07-31T00:13:04;17.30;99.90
13798;DHT22;6970;51.340;3.240;2023-07-31T00:15:34;17.30;99.90
13798;DHT22;6970;51.340;3.240;2023-07-31T00:18:04;17.30;99.90
13798;DHT22;6970;51.340;3.240;2023-07-31T00:20:32;17.30;99.90
13798;DHT22;6970;51.340;3.240;2023-07-31T00:23:00;17.30;99.90
13798;DHT22;6970;51.340;3.240;2023-07-31T00:25:30;17.30;99.90
13798;DHT22;6970;51.340;3.240;2023-07-31T00:28:00;17.20;99.90
13798;DHT22;6970;51.340;3.240;2023-07-31T00:30:30;17.30;99.90
13798;DHT22;6970;51.340;3.240;2023-07-31T00:32:57;17.20;99.90
13798;DHT22;6970;51.340;3.240;2023-07-31T00:35:28;17.20;99.90
13798;DHT22;6970;51.340;3.240;2023-07-31T00:37:57;17.20;99.90
13798;DHT22;6970;51.340;3.240;2023-07-31T00:40:26;17.20;99.90
13798;DHT22;6970;51.340;3.240;2023-07-31T00:42:53;17.20;99.90
13798;DHT22;6970;51.340;3.240;2023-07-31T00:45:23;17.20;99.90
13798;DHT22;6970;51.340;3.240;2023-07-31T00:47:53;17.10;99.90
13798;DHT22;6970;51.340;3.240;2023-07-31T00:50:24;17.10;99.90
13798;DHT22;6970;51.340;3.240;2023-07-31T00:52:53;17.20;99.90
13798;DHT22;6970;51.340;3.240;2023-07-31T00:55:21;17.20;99.90
13798;DHT22;6970;51.340;3.240;2023-07-31T00:57:49;17.20;99.90
13798;DHT22;6970;51.340;3.240;2023-07-31T01:00:19;17.20;99.90
13798;DHT22;6970;51.340;3.240;2023-07-31T01:02:47;17.20;99.90
13798;DHT22;6970;51.340;3.240;2023-07-31T01:05:15;17.20;99.90
13798;DHT22;6970;51.340;3.240;2023-07-31T01:07:52;17.20;99.90
13798;DHT22;6970;51.340;3.240;2023-07-31T01:10:40;17.20;99.90
13798;DHT22;6970;51.340;3.240;2023-07-31T01:13:10;17.20;99.90
13798;DHT22;6970;51.340;3.240;2023-07-31T01:15:39;17.10;99.90
13798;DHT22;6970;51.340;3.240;2023-07-31T01:18:09;17.10;99.90
13798;DHT22;6970;51.340;3.240;2023-07-31T01:20:42;17.10;99.90
13798;DHT22;6970;51.340;3.240;2023-07-31T01:26:05;17.10;99.90
13798;DHT22;6970;51.340;3.240;2023-07-31T01:31:14;17.10;99.90
13798;DHT22;6970;51.340;3.240;2023-07-31T01:33:46;17.10;99.90
13798;DHT22;6970;51.340;3.240;2023-07-31T01:36:17;17.10;99.90
13798;DHT22;6970;51.340;3.240;2023-07-31T01:38:47;17.10;99.90
13798;DHT22;6970;51.340;3.240;2023-07-31T01:41:20;17.10;99.90
13798;DHT22;6970;51.340;3.240;2023-07-31T01:43:50;17.10;99.90
13798;DHT22;6970;51.340;3.240;2023-07-31T01:46:20;17.10;99.90
13798;DHT22;6970;51.340;3.240;2023-07-31T01:48:50;17.10;99.90
13798;DHT22;6970;51.340;3.240;2023-07-31T01:51:23;17.10;99.90
13798;DHT22;6970;51.340;3.240;2023-07-31T01:53:59;17.10;99.90
13798;DHT22;6970;51.340;3.240;2023-07-31T01:56:29;17.10;99.90
13798;DHT22;6970;51.340;3.240;2023-07-31T01:58:59;17.10;99.90
13798;DHT22;6970;51.340;3.240;2023-07-31T02:01:29;17.10;99.90
13798;DHT22;6970;51.340;3.240;2023-07-31T02:03:57;17.10;99.90
13798;DHT22;6970;51.340;3.240;2023-07-31T02:06:25;17.10;99.90
13798;DHT22;6970;51.340;3.240;2023-07-31T02:08:53;17.10;99.90
13798;DHT22;6970;51.340;3.240;2023-07-31T02:11:26;17.00;99.90
13798;DHT22;6970;51.340;3.240;2023-07-31T02:13:56;17.10;99.90
13798;DHT22;6970;51.340;3.240;2023-07-31T02:16:24;17.00;99.90
13798;DHT22;6970;51.340;3.240;2023-07-31T02:18:54;17.00;99.90
13798;DHT22;6970;51.340;3.240;2023-07-31T02:21:24;17.00;99.90
13798;DHT22;6970;51.340;3.240;2023-07-31T02:23:54;17.00;99.90
13798;DHT22;6970;51.340;3.240;2023-07-31T02:26:21;17.00;99.90
13798;DHT22;6970;51.340;3.240;2023-07-31T02:29:03;16.90;99.90
13798;DHT22;6970;51.340;3.240;2023-07-31T02:31:32;16.90;99.90
13798;DHT22;6970;51.340;3.240;2023-07-31T02:34:00;16.90;99.90
13798;DHT22;6970;51.340;3.240;2023-07-31T02:36:29;16.90;99.90
13798;DHT22;6970;51.340;3.240;2023-07-31T02:38:59;16.80;99.90
13798;DHT22;6970;51.340;3.240;2023-07-31T02:41:30;16.80;99.90
13798;DHT22;6970;51.340;3.240;2023-07-31T02:43:58;16.80;99.90
13798;DHT22;6970;51.340;3.240;2023-07-31T02:46:25;16.80;99.90
13798;DHT22;6970;51.340;3.240;2023-07-31T02:48:53;16.80;99.90
13798;DHT22;6970;51.340;3.240;2023-07-31T02:51:21;16.80;99.90
13798;DHT22;6970;51.340;3.240;2023-07-31T02:53:52;16.80;99.90
13798;DHT22;6970;51.340;3.240;2023-07-31T02:56:20;16.80;99.90
13798;DHT22;6970;51.340;3.240;2023-07-31T02:58:49;16.80;99.90
13798;DHT22;6970;51.340;3.240;2023-07-31T03:01:19;16.90;99.90
13798;DHT22;6970;51.340;3.240;2023-07-31T03:03:49;16.90;99.90
13798;DHT22;6970;51.340;3.240;2023-07-31T03:06:18;16.90;99.90
13798;DHT22;6970;51.340;3.240;2023-07-31T03:08:46;16.90;99.90
13798;DHT22;6970;51.340;3.240;2023-07-31T03:11:13;16.80;99.90
13798;DHT22;6970;51.340;3.240;2023-07-31T03:13:40;16.80;99.90
13798;DHT22;6970;51.340;3.240;2023-07-31T03:16:08;16.80;99.90
13798;DHT22;6970;51.340;3.240;2023-07-31T03:18:37;16.80;99.90
13798;DHT22;6970;51.340;3.240;2023-07-31T03:21:04;16.70;99.90
13798;DHT22;6970;51.340;3.240;2023-07-31T03:23:32;16.70;99.90
13798;DHT22;6970;51.340;3.240;2023-07-31T03:26:06;16.70;99.90
13798;DHT22;6970;51.340;3.240;2023-07-31T03:28:36;16.70;99.90
13798;DHT22;6970;51.340;3.240;2023-07-31T03:31:06;16.60;99.90
13798;DHT22;6970;51.340;3.240;2023-07-31T03:33:38;16.60;99.90
13798;DHT22;6970;51.340;3.240;2023-07-31T03:36:07;16.60;99.90
13798;DHT22;6970;51.340;3.240;2023-07-31T03:38:37;16.60;99.90
13798;DHT22;6970;51.340;3.240;2023-07-31T03:41:07;16.60;99.90
13798;DHT22;6970;51.340;3.240;2023-07-31T03:43:35;16.60;99.90
13798;DHT22;6970;51.340;3.240;2023-07-31T03:46:05;16.60;99.90
13798;DHT22;6970;51.340;3.240;2023-07-31T03:48:36;16.60;99.90
13798;DHT22;6970;51.340;3.240;2023-07-31T03:51:03;16.60;99.90
13798;DHT22;6970;51.340;3.240;2023-07-31T03:53:31;16.60;99.90
13798;DHT22;6970;51.340;3.240;2023-07-31T03:55:58;16.60;99.90
13798;DHT22;6970;51.340;3.240;2023-07-31T03:58:28;16.60;99.90
13798;DHT22;6970;51.340;3.240;2023-07-31T04:01:13;16.60;99.90
13798;DHT22;6970;51.340;3.240;2023-07-31T04:03:40;16.60;99.90
13798;DHT22;6970;51.340;3.240;2023-07-31T04:06:08;16.60;99.90
13798;DHT22;6970;51.340;3.240;2023-07-31T04:08:35;16.60;99.90
13798;DHT22;6970;51.340;3.240;2023-07-31T04:11:02;16.70;99.90
13798;DHT22;6970;51.340;3.240;2023-07-31T04:13:30;16.70;99.90
13798;DHT22;6970;51.340;3.240;2023-07-31T04:15:58;16.60;99.90
13798;DHT22;6970;51.340;3.240;2023-07-31T04:18:29;16.70;99.90
13798;DHT22;6970;51.340;3.240;2023-07-31T04:20:58;16.60;99.90
13798;DHT22;6970;51.340;3.240;2023-07-31T04:23:27;16.70;99.90
13798;DHT22;6970;51.340;3.240;2023-07-31T04:26:00;16.70;99.90
13798;DHT22;6970;51.340;3.240;2023-07-31T04:28:30;16.70;99.90
13798;DHT22;6970;51.340;3.240;2023-07-31T04:31:00;16.80;99.90
13798;DHT22;6970;51.340;3.240;2023-07-31T04:33:28;16.80;99.90
13798;DHT22;6970;51.340;3.240;2023-07-31T04:35:56;16.70;99.90
13798;DHT22;6970;51.340;3.240;2023-07-31T04:38:23;16.80;99.90
13798;DHT22;6970;51.340;3.240;2023-07-31T04:40:50;16.80;99.90
13798;DHT22;6970;51.340;3.240;2023-07-31T04:43:17;16.80;99.90
13798;DHT22;6970;51.340;3.240;2023-07-31T04:45:49;16.80;99.90
13798;DHT22;6970;51.340;3.240;2023-07-31T04:48:20;16.80;99.90
13798;DHT22;6970;51.340;3.240;2023-07-31T04:50:50;16.80;99.90
13798;DHT22;6970;51.340;3.240;2023-07-31T04:53:19;16.80;99.90
13798;DHT22;6970;51.340;3.240;2023-07-31T04:55:49;16.80;99.90
13798;DHT22;6970;51.340;3.240;2023-07-31T04:58:20;16.80;99.90
13798;DHT22;6970;51.340;3.240;2023-07-31T05:00:48;16.70;99.90
13798;DHT22;6970;51.340;3.240;2023-07-31T05:03:16;16.70;99.90
13798;DHT22;6970;51.340;3.240;2023-07-31T05:05:47;16.70;99.90
13798;DHT22;6970;51.340;3.240;2023-07-31T05:08:14;16.80;99.90
13798;DHT22;6970;51.340;3.240;2023-07-31T05:10:42;16.70;99.90
13798;DHT22;6970;51.340;3.240;2023-07-31T05:13:12;16.80;99.90
13798;DHT22;6970;51.340;3.240;2023-07-31T05:15:42;16.70;99.90
13798;DHT22;6970;51.340;3.240;2023-07-31T05:18:11;16.70;99.90
13798;DHT22;6970;51.340;3.240;2023-07-31T05:20:40;16.80;99.90
13798;DHT22;6970;51.340;3.240;2023-07-31T05:23:07;16.70;99.90
13798;DHT22;6970;51.340;3.240;2023-07-31T05:25:36;16.80;99.90
13798;DHT22;6970;51.340;3.240;2023-07-31T05:28:04;16.80;99.90
13798;DHT22;6970;51.340;3.240;2023-07-31T05:30:35;16.80;99.90
13798;DHT22;6970;51.340;3.240;2023-07-31T05:33:02;16.80;99.90
13798;DHT22;6970;51.340;3.240;2023-07-31T05:35:29;16.80;99.90
13798;DHT22;6970;51.340;3.240;2023-07-31T05:37:57;16.80;99.90
13798;DHT22;6970;51.340;3.240;2023-07-31T05:40:33;16.90;99.90
13798;DHT22;6970;51.340;3.240;2023-07-31T05:43:00;16.90;99.90
13798;DHT22;6970;51.340;3.240;2023-07-31T05:45:29;16.90;99.90
13798;DHT22;6970;51.340;3.240;2023-07-31T05:47:58;16.90;99.90
13798;DHT22;6970;51.340;3.240;2023-07-31T05:50:25;16.90;99.90
13798;DHT22;6970;51.340;3.240;2023-07-31T05:52:55;16.90;99.90
13798;DHT22;6970;51.340;3.240;2023-07-31T05:55:24;17.00;99.90
13798;DHT22;6970;51.340;3.240;2023-07-31T05:57:54;17.00;99.90
13798;DHT22;6970;51.340;3.240;2023-07-31T06:00:21;17.00;99.90
13798;DHT22;6970;51.340;3.240;2023-07-31T06:02:55;17.00;99.90
13798;DHT22;6970;51.340;3.240;2023-07-31T06:05:22;17.00;99.90
13798;DHT22;6970;51.340;3.240;2023-07-31T06:07:52;16.90;99.90
13798;DHT22;6970;51.340;3.240;2023-07-31T06:10:20;17.00;99.90
13798;DHT22;6970;51.340;3.240;2023-07-31T06:12:49;17.00;99.90
13798;DHT22;6970;51.340;3.240;2023-07-31T06:15:19;17.00;99.90
13798;DHT22;6970;51.340;3.240;2023-07-31T06:17:47;16.90;99.90
13798;DHT22;6970;51.340;3.240;2023-07-31T06:20:20;16.90;99.90
13798;DHT22;6970;51.340;3.240;2023-07-31T06:22:50;17.00;99.90
13798;DHT22;6970;51.340;3.240;2023-07-31T06:25:20;17.00;99.90
13798;DHT22;6970;51.340;3.240;2023-07-31T06:27:50;17.00;99.90
13798;DHT22;6970;51.340;3.240;2023-07-31T06:30:20;17.00;99.90
13798;DHT22;6970;51.340;3.240;2023-07-31T06:32:48;17.00;99.90
13798;DHT22;6970;51.340;3.240;2023-07-31T06:35:18;17.00;99.90
13798;DHT22;6970;51.340;3.240;2023-07-31T06:37:47;17.00;99.90
13798;DHT22;6970;51.340;3.240;2023-07-31T06:40:16;17.00;99.90
13798;DHT22;6970;51.340;3.240;2023-07-31T06:42:46;17.00;99.90
13798;DHT22;6970;51.340;3.240;2023-07-31T06:45:16;17.00;99.90
13798;DHT22;6970;51.340;3.240;2023-07-31T06:47:46;17.00;99.90
13798;DHT22;6970;51.340;3.240;2023-07-31T06:50:13;17.00;99.90
13798;DHT22;6970;51.340;3.240;2023-07-31T06:52:40;17.00;99.90
13798;DHT22;6970;51.340;3.240;2023-07-31T06:55:18;17.00;99.90
13798;DHT22;6970;51.340;3.240;2023-07-31T06:57:50;17.00;99.90
13798;DHT22;6970;51.340;3.240;2023-07-31T07:00:19;17.00;99.90
13798;DHT22;6970;51.340;3.240;2023-07-31T07:02:46;17.00;99.90
13798;DHT22;6970;51.340;3.240;2023-07-31T07:05:17;17.10;99.90
13798;DHT22;6970;51.340;3.240;2023-07-31T07:07:44;17.10;99.90
13798;DHT22;6970;51.340;3.240;2023-07-31T07:10:12;17.10;99.90
13798;DHT22;6970;51.340;3.240;2023-07-31T07:12:39;17.00;99.90
13798;DHT22;6970;51.340;3.240;2023-07-31T07:15:06;17.10;99.90
13798;DHT22;6970;51.340;3.240;2023-07-31T07:17:34;17.10;99.90
13798;DHT22;6970;51.340;3.240;2023-07-31T07:20:01;17.10;99.90
13798;DHT22;6970;51.340;3.240;2023-07-31T07:22:30;17.10;99.90
13798;DHT22;6970;51.340;3.240;2023-07-31T07:24:57;17.10;99.90
13798;DHT22;6970;51.340;3.240;2023-07-31T07:27:30;17.10;99.90
13798;DHT22;6970;51.340;3.240;2023-07-31T07:29:58;17.20;99.90
13798;DHT22;6970;51.340;3.240;2023-07-31T07:32:27;17.20;99.90
13798;DHT22;6970;51.340;3.240;2023-07-31T07:34:58;17.20;99.90
13798;DHT22;6970;51.340;3.240;2023-07-31T07:37:26;17.30;99.90
13798;DHT22;6970;51.340;3.240;2023-07-31T07:39:53;17.30;99.90
13798;DHT22;6970;51.340;3.240;2023-07-31T07:42:20;17.30;99.90
13798;DHT22;6970;51.340;3.240;2023-07-31T07:44:47;17.30;99.90
13798;DHT22;6970;51.340;3.240;2023-07-31T07:47:18;17.30;99.90
13798;DHT22;6970;51.340;3.240;2023-07-31T07:49:47;17.30;99.90
13798;DHT22;6970;51.340;3.240;2023-07-31T07:52:21;17.30;99.90
13798;DHT22;6970;51.340;3.240;2023-07-31T07:54:48;17.30;99.90
13798;DHT22;6970;51.340;3.240;2023-07-31T07:57:18;17.30;99.90
13798;DHT22;6970;51.340;3.240;2023-07-31T07:59:46;17.30;99.90
13798;DHT22;6970;51.340;3.240;2023-07-31T08:02:13;17.30;99.90
13798;DHT22;6970;51.340;3.240;2023-07-31T08:04:40;17.30;99.90
13798;DHT22;6970;51.340;3.240;2023-07-31T08:07:13;17.40;99.90
13798;DHT22;6970;51.340;3.240;2023-07-31T08:09:41;17.40;99.90
13798;DHT22;6970;51.340;3.240;2023-07-31T08:12:11;17.40;99.90
13798;DHT22;6970;51.340;3.240;2023-07-31T08:14:38;17.40;99.90
13798;DHT22;6970;51.340;3.240;2023-07-31T08:17:05;17.50;99.90
13798;DHT22;6970;51.340;3.240;2023-07-31T08:19:35;17.50;99.90
13798;DHT22;6970;51.340;3.240;2023-07-31T08:22:03;17.50;99.90
13798;DHT22;6970;51.340;3.240;2023-07-31T08:24:33;17.60;99.90
13798;DHT22;6970;51.340;3.240;2023-07-31T08:27:00;17.70;99.90
13798;DHT22;6970;51.340;3.240;2023-07-31T08:29:30;17.70;99.90
13798;DHT22;6970;51.340;3.240;2023-07-31T08:31:58;17.70;99.90
13798;DHT22;6970;51.340;3.240;2023-07-31T08:34:25;17.80;99.90
13798;DHT22;6970;51.340;3.240;2023-07-31T08:36:56;17.80;99.90
13798;DHT22;6970;51.340;3.240;2023-07-31T08:39:24;17.80;99.90
13798;DHT22;6970;51.340;3.240;2023-07-31T08:41:57;17.80;99.90
13798;DHT22;6970;51.340;3.240;2023-07-31T08:44:25;17.90;99.90
13798;DHT22;6970;51.340;3.240;2023-07-31T08:46:52;17.90;99.90
13798;DHT22;6970;51.340;3.240;2023-07-31T08:49:21;17.90;99.90
13798;DHT22;6970;51.340;3.240;2023-07-31T08:51:50;17.90;99.90
13798;DHT22;6970;51.340;3.240;2023-07-31T08:54:19;17.90;99.90
13798;DHT22;6970;51.340;3.240;2023-07-31T08:56:48;18.00;99.90
13798;DHT22;6970;51.340;3.240;2023-07-31T08:59:15;18.00;99.90
13798;DHT22;6970;51.340;3.240;2023-07-31T09:01:50;18.00;99.90
13798;DHT22;6970;51.340;3.240;2023-07-31T09:04:23;18.10;99.90
13798;DHT22;6970;51.340;3.240;2023-07-31T09:06:51;18.10;99.90
13798;DHT22;6970;51.340;3.240;2023-07-31T09:09:22;18.20;99.90
13798;DHT22;6970;51.340;3.240;2023-07-31T09:11:49;18.10;99.90
13798;DHT22;6970;51.340;3.240;2023-07-31T09:14:18;18.20;99.90
13798;DHT22;6970;51.340;3.240;2023-07-31T09:16:56;18.20;99.90
13798;DHT22;6970;51.340;3.240;2023-07-31T09:19:33;18.30;99.90
13798;DHT22;6970;51.340;3.240;2023-07-31T09:22:01;18.30;99.90
13798;DHT22;6970;51.340;3.240;2023-07-31T09:24:31;18.40;99.90
13798;DHT22;6970;51.340;3.240;2023-07-31T09:27:01;18.40;99.90
13798;DHT22;6970;51.340;3.240;2023-07-31T09:29:29;18.50;99.90
13798;DHT22;6970;51.340;3.240;2023-07-31T09:31:57;18.60;99.90
13798;DHT22;6970;51.340;3.240;2023-07-31T09:34:38;18.60;99.90
13798;DHT22;6970;51.340;3.240;2023-07-31T09:37:07;18.60;99.90
13798;DHT22;6970;51.340;3.240;2023-07-31T09:39:47;18.60;99.90
13798;DHT22;6970;51.340;3.240;2023-07-31T09:42:14;18.60;99.90
13798;DHT22;6970;51.340;3.240;2023-07-31T09:44:51;18.60;99.90
13798;DHT22;6970;51.340;3.240;2023-07-31T09:47:24;18.60;99.90
13798;DHT22;6970;51.340;3.240;2023-07-31T09:49:56;18.60;99.90
13798;DHT22;6970;51.340;3.240;2023-07-31T09:52:26;18.70;99.90
13798;DHT22;6970;51.340;3.240;2023-07-31T09:54:54;18.70;99.90
13798;DHT22;6970;51.340;3.240;2023-07-31T09:57:22;18.70;99.90
13798;DHT22;6970;51.340;3.240;2023-07-31T09:59:53;18.80;99.90
13798;DHT22;6970;51.340;3.240;2023-07-31T10:02:24;18.90;99.90
13798;DHT22;6970;51.340;3.240;2023-07-31T10:04:57;18.90;99.90
13798;DHT22;6970;51.340;3.240;2023-07-31T10:07:26;18.90;99.90
13798;DHT22;6970;51.340;3.240;2023-07-31T10:10:02;18.90;99.90
13798;DHT22;6970;51.340;3.240;2023-07-31T10:12:32;18.90;99.90
13798;DHT22;6970;51.340;3.240;2023-07-31T10:15:01;19.00;99.90
13798;DHT22;6970;51.340;3.240;2023-07-31T10:17:31;19.00;99.90
13798;DHT22;6970;51.340;3.240;2023-07-31T10:19:58;19.00;99.90
13798;DHT22;6970;51.340;3.240;2023-07-31T10:22:29;19.00;99.90
13798;DHT22;6970;51.340;3.240;2023-07-31T10:24:58;19.00;99.90
13798;DHT22;6970;51.340;3.240;2023-07-31T10:27:28;19.00;99.90
13798;DHT22;6970;51.340;3.240;2023-07-31T10:29:57;19.00;99.90
13798;DHT22;6970;51.340;3.240;2023-07-31T10:32:26;19.00;99.90
13798;DHT22;6970;51.340;3.240;2023-07-31T10:34:55;19.00;99.90
13798;DHT22;6970;51.340;3.240;2023-07-31T10:37:39;19.10;99.90
13798;DHT22;6970;51.340;3.240;2023-07-31T10:40:10;19.10;99.90
13798;DHT22;6970;51.340;3.240;2023-07-31T10:42:47;19.10;99.90
13798;DHT22;6970;51.340;3.240;2023-07-31T10:45:32;19.20;99.90
13798;DHT22;6970;51.340;3.240;2023-07-31T10:50:32;19.30;99.90
13798;DHT22;6970;51.340;3.240;2023-07-31T10:53:05;19.40;99.90
13798;DHT22;6970;51.340;3.240;2023-07-31T10:55:41;19.50;99.90
13798;DHT22;6970;51.340;3.240;2023-07-31T10:58:12;19.60;99.90
13798;DHT22;6970;51.340;3.240;2023-07-31T11:00:43;19.60;99.90
13798;DHT22;6970;51.340;3.240;2023-07-31T11:03:25;19.70;99.90
13798;DHT22;6970;51.340;3.240;2023-07-31T11:06:00;19.70;99.90
13798;DHT22;6970;51.340;3.240;2023-07-31T11:08:33;19.80;99.90
13798;DHT22;6970;51.340;3.240;2023-07-31T11:11:12;19.70;99.90
13798;DHT22;6970;51.340;3.240;2023-07-31T11:13:52;19.70;99.90
13798;DHT22;6970;51.340;3.240;2023-07-31T11:16:22;19.60;99.90
13798;DHT22;6970;51.340;3.240;2023-07-31T11:18:54;19.50;99.90
13798;DHT22;6970;51.340;3.240;2023-07-31T11:21:25;19.50;99.90
13798;DHT22;6970;51.340;3.240;2023-07-31T11:23:56;19.50;99.90
13798;DHT22;6970;51.340;3.240;2023-07-31T11:26:25;19.60;99.90
13798;DHT22;6970;51.340;3.240;2023-07-31T11:28:52;19.70;99.90
13798;DHT22;6970;51.340;3.240;2023-07-31T11:31:19;19.70;99.90
13798;DHT22;6970;51.340;3.240;2023-07-31T11:33:49;19.80;99.90
13798;DHT22;6970;51.340;3.240;2023-07-31T11:36:22;19.90;99.90
13798;DHT22;6970;51.340;3.240;2023-07-31T11:38:52;20.00;99.90
13798;DHT22;6970;51.340;3.240;2023-07-31T11:41:23;20.00;99.90
13798;DHT22;6970;51.340;3.240;2023-07-31T11:44:00;20.00;99.90
13798;DHT22;6970;51.340;3.240;2023-07-31T11:46:48;20.00;99.90
13798;DHT22;6970;51.340;3.240;2023-07-31T11:49:15;20.00;99.90
13798;DHT22;6970;51.340;3.240;2023-07-31T11:51:42;20.00;99.90
13798;DHT22;6970;51.340;3.240;2023-07-31T11:54:10;19.90;99.90
13798;DHT22;6970;51.340;3.240;2023-07-31T11:56:43;19.80;99.90
13798;DHT22;6970;51.340;3.240;2023-07-31T11:59:14;19.70;99.90
13798;DHT22;6970;51.340;3.240;2023-07-31T12:01:41;19.60;99.90
13798;DHT22;6970;51.340;3.240;2023-07-31T12:04:11;19.60;99.90
13798;DHT22;6970;51.340;3.240;2023-07-31T12:06:41;19.60;99.90
13798;DHT22;6970;51.340;3.240;2023-07-31T12:09:10;19.50;99.90
13798;DHT22;6970;51.340;3.240;2023-07-31T12:11:46;19.40;99.90
13798;DHT22;6970;51.340;3.240;2023-07-31T12:14:27;19.40;99.90
13798;DHT22;6970;51.340;3.240;2023-07-31T12:17:00;19.30;99.90
13798;DHT22;6970;51.340;3.240;2023-07-31T12:19:30;19.30;99.90
13798;DHT22;6970;51.340;3.240;2023-07-31T12:22:01;19.20;99.90
13798;DHT22;6970;51.340;3.240;2023-07-31T12:24:29;19.20;99.90
13798;DHT22;6970;51.340;3.240;2023-07-31T12:26:56;19.20;99.90
13798;DHT22;6970;51.340;3.240;2023-07-31T12:29:23;19.20;99.90
13798;DHT22;6970;51.340;3.240;2023-07-31T12:31:53;19.20;99.90
13798;DHT22;6970;51.340;3.240;2023-07-31T12:34:23;19.20;99.90
13798;DHT22;6970;51.340;3.240;2023-07-31T12:36:53;19.20;99.90
13798;DHT22;6970;51.340;3.240;2023-07-31T12:39:23;19.20;99.90
13798;DHT22;6970;51.340;3.240;2023-07-31T12:41:52;19.30;99.90
13798;DHT22;6970;51.340;3.240;2023-07-31T12:44:20;19.30;99.90
13798;DHT22;6970;51.340;3.240;2023-07-31T12:46:47;19.40;99.90
13798;DHT22;6970;51.340;3.240;2023-07-31T12:49:14;19.40;99.90
13798;DHT22;6970;51.340;3.240;2023-07-31T12:51:46;19.50;99.90
13798;DHT22;6970;51.340;3.240;2023-07-31T12:54:14;19.40;99.90
13798;DHT22;6970;51.340;3.240;2023-07-31T12:56:41;19.40;99.90
13798;DHT22;6970;51.340;3.240;2023-07-31T12:59:08;19.40;99.90
13798;DHT22;6970;51.340;3.240;2023-07-31T13:01:41;19.40;99.90
13798;DHT22;6970;51.340;3.240;2023-07-31T13:04:10;19.40;99.90
13798;DHT22;6970;51.340;3.240;2023-07-31T13:06:38;19.30;99.90
13798;DHT22;6970;51.340;3.240;2023-07-31T13:09:07;19.20;99.90
13798;DHT22;6970;51.340;3.240;2023-07-31T13:11:36;19.20;99.90
13798;DHT22;6970;51.340;3.240;2023-07-31T13:14:03;19.20;99.90
13798;DHT22;6970;51.340;3.240;2023-07-31T13:16:32;19.10;99.90
13798;DHT22;6970;51.340;3.240;2023-07-31T13:19:00;19.10;99.90
13798;DHT22;6970;51.340;3.240;2023-07-31T13:21:28;19.00;99.90
13798;DHT22;6970;51.340;3.240;2023-07-31T13:23:56;18.90;99.90
13798;DHT22;6970;51.340;3.240;2023-07-31T13:26:24;18.90;99.90
13798;DHT22;6970;51.340;3.240;2023-07-31T13:28:51;18.90;99.90
13798;DHT22;6970;51.340;3.240;2023-07-31T13:31:20;18.90;99.90
13798;DHT22;6970;51.340;3.240;2023-07-31T13:33:47;19.00;99.90
13798;DHT22;6970;51.340;3.240;2023-07-31T13:36:28;18.90;99.90
13798;DHT22;6970;51.340;3.240;2023-07-31T13:38:56;18.90;99.90
13798;DHT22;6970;51.340;3.240;2023-07-31T13:41:23;19.00;99.90
13798;DHT22;6970;51.340;3.240;2023-07-31T13:43:52;19.00;99.90
13798;DHT22;6970;51.340;3.240;2023-07-31T13:46:19;19.00;99.90
13798;DHT22;6970;51.340;3.240;2023-07-31T13:48:48;19.00;99.90
13798;DHT22;6970;51.340;3.240;2023-07-31T13:51:15;19.00;99.90
13798;DHT22;6970;51.340;3.240;2023-07-31T13:53:45;18.90;99.90
13798;DHT22;6970;51.340;3.240;2023-07-31T13:56:13;18.90;99.90
13798;DHT22;6970;51.340;3.240;2023-07-31T13:58:42;18.80;99.90
13798;DHT22;6970;51.340;3.240;2023-07-31T14:01:12;18.80;99.90
13798;DHT22;6970;51.340;3.240;2023-07-31T14:03:41;18.80;99.90
13798;DHT22;6970;51.340;3.240;2023-07-31T14:06:12;18.80;99.90
13798;DHT22;6970;51.340;3.240;2023-07-31T14:08:39;18.80;99.90
13798;DHT22;6970;51.340;3.240;2023-07-31T14:11:06;18.80;99.90
13798;DHT22;6970;51.340;3.240;2023-07-31T14:13:34;18.80;99.90
13798;DHT22;6970;51.340;3.240;2023-07-31T14:16:01;18.80;99.90
13798;DHT22;6970;51.340;3.240;2023-07-31T14:18:31;18.80;99.90
13798;DHT22;6970;51.340;3.240;2023-07-31T14:21:02;18.80;99.90
13798;DHT22;6970;51.340;3.240;2023-07-31T14:23:29;18.80;99.90
13798;DHT22;6970;51.340;3.240;2023-07-31T14:25:59;18.80;99.90
13798;DHT22;6970;51.340;3.240;2023-07-31T14:28:27;18.90;99.90
13798;DHT22;6970;51.340;3.240;2023-07-31T14:30:58;18.80;99.90
13798;DHT22;6970;51.340;3.240;2023-07-31T14:33:28;18.80;99.90
13798;DHT22;6970;51.340;3.240;2023-07-31T14:35:55;18.90;99.90
13798;DHT22;6970;51.340;3.240;2023-07-31T14:38:22;18.90;99.90
13798;DHT22;6970;51.340;3.240;2023-07-31T14:40:52;18.90;99.90
13798;DHT22;6970;51.340;3.240;2023-07-31T14:43:20;18.90;99.90
13798;DHT22;6970;51.340;3.240;2023-07-31T14:45:53;18.90;99.90
13798;DHT22;6970;51.340;3.240;2023-07-31T14:48:23;18.90;99.90
13798;DHT22;6970;51.340;3.240;2023-07-31T14:50:52;18.80;99.90
13798;DHT22;6970;51.340;3.240;2023-07-31T14:53:19;18.80;99.90
13798;DHT22;6970;51.340;3.240;2023-07-31T14:55:48;18.80;99.90
13798;DHT22;6970;51.340;3.240;2023-07-31T14:58:17;18.80;99.90
13798;DHT22;6970;51.340;3.240;2023-07-31T15:00:45;18.80;99.90
13798;DHT22;6970;51.340;3.240;2023-07-31T15:03:15;18.80;99.90
13798;DHT22;6970;51.340;3.240;2023-07-31T15:05:43;18.90;99.90
13798;DHT22;6970;51.340;3.240;2023-07-31T15:08:10;18.90;99.90
13798;DHT22;6970;51.340;3.240;2023-07-31T15:10:38;18.90;99.90
13798;DHT22;6970;51.340;3.240;2023-07-31T15:13:06;18.90;99.90
13798;DHT22;6970;51.340;3.240;2023-07-31T15:15:33;18.80;99.90
13798;DHT22;6970;51.340;3.240;2023-07-31T15:18:03;18.80;99.90
13798;DHT22;6970;51.340;3.240;2023-07-31T15:20:34;18.90;99.90
13798;DHT22;6970;51.340;3.240;2023-07-31T15:23:02;18.90;99.90
13798;DHT22;6970;51.340;3.240;2023-07-31T15:25:29;18.90;99.90
13798;DHT22;6970;51.340;3.240;2023-07-31T15:27:59;19.00;99.90
13798;DHT22;6970;51.340;3.240;2023-07-31T15:30:30;19.00;99.90
13798;DHT22;6970;51.340;3.240;2023-07-31T15:32:58;19.00;99.90
13798;DHT22;6970;51.340;3.240;2023-07-31T15:35:29;19.00;99.90
13798;DHT22;6970;51.340;3.240;2023-07-31T15:37:56;19.00;99.90
13798;DHT22;6970;51.340;3.240;2023-07-31T15:40:26;19.00;99.90
13798;DHT22;6970;51.340;3.240;2023-07-31T15:42:56;19.00;99.90
13798;DHT22;6970;51.340;3.240;2023-07-31T15:45:29;19.00;99.90
13798;DHT22;6970;51.340;3.240;2023-07-31T15:47:59;19.00;99.90
13798;DHT22;6970;51.340;3.240;2023-07-31T15:50:27;19.00;99.90
13798;DHT22;6970;51.340;3.240;2023-07-31T15:52:57;18.90;99.90
13798;DHT22;6970;51.340;3.240;2023-07-31T15:55:24;18.90;99.90
13798;DHT22;6970;51.340;3.240;2023-07-31T15:57:54;18.90;99.90
13798;DHT22;6970;51.340;3.240;2023-07-31T16:00:24;18.90;99.90
13798;DHT22;6970;51.340;3.240;2023-07-31T16:02:59;18.90;99.90
13798;DHT22;6970;51.340;3.240;2023-07-31T16:05:27;18.90;99.90
13798;DHT22;6970;51.340;3.240;2023-07-31T16:07:57;18.80;99.90